sensor_id;sensor_type;location;lat;lon;timestamp;pressure;altitude;pressure_sealevel;temperature;humidity
71384;BME280;67558;52.166;5.004;2024-01-30T00:00:53;102623.16;;;23.35;37.20
71384;BME280;67558;52.166;5.004;2024-01-30T00:03:18;102622.84;;;23.36;37.02
71384;BME280;67558;52.166;5.004;2024-01-30T00:05:44;102624.66;;;23.41;36.76
71384;BME280;67558;52.166;5.004;2024-01-30T00:08:09;102625.16;;;23.43;37.03
71384;BME280;67558;52.166;5.004;2024-01-30T00:10:34;102613.03;;;23.35;36.67
71384;BME280;67558;52.166;5.004;2024-01-30T00:13:00;102621.84;;;23.32;37.19
71384;BME280;67558;52.166;5.004;2024-01-30T00:15:25;102612.31;;;23.29;37.24
71384;BME280;67558;52.166;5.004;2024-01-30T00:17:50;102610.09;;;23.31;36.63
71384;BME280;67558;52.166;5.004;2024-01-30T00:20:17;102619.13;;;23.32;36.74
71384;BME280;67558;52.166;5.004;2024-01-30T00:22:43;102618.19;;;23.37;36.88
71384;BME280;67558;52.166;5.004;2024-01-30T00:25:08;102612.22;;;23.35;36.93
71384;BME280;67558;52.166;5.004;2024-01-30T00:27:33;102612.09;;;23.40;36.87
71384;BME280;67558;52.166;5.004;2024-01-30T00:29:59;102609.59;;;23.29;37.04
71384;BME280;67558;52.166;5.004;2024-01-30T00:32:24;102604.97;;;23.30;36.73
71384;BME280;67558;52.166;5.004;2024-01-30T00:34:49;102605.75;;;23.30;36.88
71384;BME280;67558;52.166;5.004;2024-01-30T00:37:15;102607.50;;;23.26;36.63
71384;BME280;67558;52.166;5.004;2024-01-30T00:39:40;102614.47;;;23.33;36.84
71384;BME280;67558;52.166;5.004;2024-01-30T00:42:05;102611.22;;;23.30;36.59
71384;BME280;67558;52.166;5.004;2024-01-30T00:44:31;102607.00;;;23.24;36.87
71384;BME280;67558;52.166;5.004;2024-01-30T00:46:56;102611.44;;;23.34;36.79
71384;BME280;67558;52.166;5.004;2024-01-30T00:49:21;102602.84;;;23.27;36.71
71384;BME280;67558;52.166;5.004;2024-01-30T00:51:47;102604.75;;;23.26;36.43
71384;BME280;67558;52.166;5.004;2024-01-30T00:54:12;102607.28;;;23.23;36.87
71384;BME280;67558;52.166;5.004;2024-01-30T00:56:37;102605.56;;;23.27;36.64
71384;BME280;67558;52.166;5.004;2024-01-30T00:59:03;102602.97;;;23.22;36.58
71384;BME280;67558;52.166;5.004;2024-01-30T01:01:28;102597.31;;;23.18;36.37
71384;BME280;67558;52.166;5.004;2024-01-30T01:03:54;102591.84;;;23.18;36.75
71384;BME280;67558;52.166;5.004;2024-01-30T01:06:19;102582.56;;;23.19;36.50
71384;BME280;67558;52.166;5.004;2024-01-30T01:08:44;102578.59;;;23.25;36.76
71384;BME280;67558;52.166;5.004;2024-01-30T01:11:10;102584.16;;;23.20;36.33
71384;BME280;67558;52.166;5.004;2024-01-30T01:13:35;102580.69;;;23.28;36.54
71384;BME280;67558;52.166;5.004;2024-01-30T01:16:00;102583.78;;;23.13;36.80
71384;BME280;67558;52.166;5.004;2024-01-30T01:18:26;102593.34;;;23.24;36.49
71384;BME280;67558;52.166;5.004;2024-01-30T01:20:52;102579.94;;;23.14;36.47
71384;BME280;67558;52.166;5.004;2024-01-30T01:23:17;102582.78;;;23.09;36.78
71384;BME280;67558;52.166;5.004;2024-01-30T01:25:43;102594.91;;;23.17;36.69
71384;BME280;67558;52.166;5.004;2024-01-30T01:28:08;102587.63;;;23.12;36.28
71384;BME280;67558;52.166;5.004;2024-01-30T01:30:33;102592.78;;;23.14;36.75
71384;BME280;67558;52.166;5.004;2024-01-30T01:32:59;102586.38;;;23.18;36.16
71384;BME280;67558;52.166;5.004;2024-01-30T01:35:27;102590.34;;;23.12;36.48
71384;BME280;67558;52.166;5.004;2024-01-30T01:37:53;102594.16;;;23.25;36.25
71384;BME280;67558;52.166;5.004;2024-01-30T01:40:26;102587.03;;;23.01;36.70
71384;BME280;67558;52.166;5.004;2024-01-30T01:42:53;102581.78;;;23.05;36.50
71384;BME280;67558;52.166;5.004;2024-01-30T01:45:20;102575.91;;;23.12;36.59
71384;BME280;67558;52.166;5.004;2024-01-30T01:47:48;102576.53;;;23.08;36.77
71384;BME280;67558;52.166;5.004;2024-01-30T01:50:15;102576.81;;;23.07;36.33
71384;BME280;67558;52.166;5.004;2024-01-30T01:52:44;102565.41;;;23.05;36.21
71384;BME280;67558;52.166;5.004;2024-01-30T01:55:12;102564.78;;;23.08;36.71
71384;BME280;67558;52.166;5.004;2024-01-30T01:57:38;102564.09;;;23.02;36.40
71384;BME280;67558;52.166;5.004;2024-01-30T02:00:04;102575.09;;;22.97;36.70
71384;BME280;67558;52.166;5.004;2024-01-30T02:02:30;102568.31;;;22.95;36.62
71384;BME280;67558;52.166;5.004;2024-01-30T02:04:59;102566.34;;;23.00;36.86
71384;BME280;67558;52.166;5.004;2024-01-30T02:07:25;102570.88;;;23.05;36.12
71384;BME280;67558;52.166;5.004;2024-01-30T02:09:51;102573.69;;;23.00;36.58
71384;BME280;67558;52.166;5.004;2024-01-30T02:12:16;102584.81;;;23.03;36.61
71384;BME280;67558;52.166;5.004;2024-01-30T02:14:45;102583.78;;;22.99;36.74
71384;BME280;67558;52.166;5.004;2024-01-30T02:17:12;102572.84;;;22.99;36.56
71384;BME280;67558;52.166;5.004;2024-01-30T02:19:37;102578.16;;;22.96;36.55
71384;BME280;67558;52.166;5.004;2024-01-30T02:22:03;102578.94;;;22.96;36.72
71384;BME280;67558;52.166;5.004;2024-01-30T02:24:29;102592.09;;;22.94;36.82
71384;BME280;67558;52.166;5.004;2024-01-30T02:26:54;102593.81;;;22.90;36.62
71384;BME280;67558;52.166;5.004;2024-01-30T02:29:20;102581.66;;;22.96;36.35
71384;BME280;67558;52.166;5.004;2024-01-30T02:31:46;102558.72;;;22.97;36.33
71384;BME280;67558;52.166;5.004;2024-01-30T02:34:11;102553.69;;;22.90;36.82
71384;BME280;67558;52.166;5.004;2024-01-30T02:36:36;102552.69;;;22.86;36.76
71384;BME280;67558;52.166;5.004;2024-01-30T02:39:02;102563.00;;;22.89;36.54
71384;BME280;67558;52.166;5.004;2024-01-30T02:41:27;102554.88;;;22.98;36.51
71384;BME280;67558;52.166;5.004;2024-01-30T02:43:53;102557.75;;;22.93;36.45
71384;BME280;67558;52.166;5.004;2024-01-30T02:46:18;102552.28;;;22.93;36.24
71384;BME280;67558;52.166;5.004;2024-01-30T02:48:43;102545.00;;;22.88;36.59
71384;BME280;67558;52.166;5.004;2024-01-30T02:51:09;102541.47;;;22.88;36.16
71384;BME280;67558;52.166;5.004;2024-01-30T02:53:34;102553.50;;;22.87;36.59
71384;BME280;67558;52.166;5.004;2024-01-30T02:55:59;102557.66;;;22.84;36.27
71384;BME280;67558;52.166;5.004;2024-01-30T02:58:25;102558.13;;;22.86;36.43
71384;BME280;67558;52.166;5.004;2024-01-30T03:00:50;102556.09;;;22.92;36.16
71384;BME280;67558;52.166;5.004;2024-01-30T03:03:15;102551.94;;;22.95;36.43
71384;BME280;67558;52.166;5.004;2024-01-30T03:05:41;102549.47;;;22.84;36.26
71384;BME280;67558;52.166;5.004;2024-01-30T03:08:06;102540.66;;;22.87;36.40
71384;BME280;67558;52.166;5.004;2024-01-30T03:10:31;102538.94;;;22.92;36.46
71384;BME280;67558;52.166;5.004;2024-01-30T03:12:57;102543.59;;;22.91;36.36
71384;BME280;67558;52.166;5.004;2024-01-30T03:15:22;102537.56;;;22.80;36.71
71384;BME280;67558;52.166;5.004;2024-01-30T03:17:48;102537.06;;;22.78;36.47
71384;BME280;67558;52.166;5.004;2024-01-30T03:20:13;102535.44;;;22.77;36.39
71384;BME280;67558;52.166;5.004;2024-01-30T03:22:39;102531.59;;;22.78;36.61
71384;BME280;67558;52.166;5.004;2024-01-30T03:25:04;102523.78;;;22.85;36.49
71384;BME280;67558;52.166;5.004;2024-01-30T03:27:30;102520.34;;;22.94;36.10
71384;BME280;67558;52.166;5.004;2024-01-30T03:29:55;102521.56;;;22.87;36.24
71384;BME280;67558;52.166;5.004;2024-01-30T03:32:20;102513.59;;;22.77;36.26
71384;BME280;67558;52.166;5.004;2024-01-30T03:34:46;102502.19;;;22.75;36.25
71384;BME280;67558;52.166;5.004;2024-01-30T03:37:11;102515.31;;;22.73;36.82
71384;BME280;67558;52.166;5.004;2024-01-30T03:39:36;102509.16;;;22.81;36.15
71384;BME280;67558;52.166;5.004;2024-01-30T03:42:02;102512.09;;;22.85;36.17
71384;BME280;67558;52.166;5.004;2024-01-30T03:44:27;102526.25;;;22.73;36.82
71384;BME280;67558;52.166;5.004;2024-01-30T03:46:52;102530.09;;;22.72;36.25
71384;BME280;67558;52.166;5.004;2024-01-30T03:49:18;102520.78;;;22.73;36.28
71384;BME280;67558;52.166;5.004;2024-01-30T03:51:43;102520.78;;;22.73;36.33
71384;BME280;67558;52.166;5.004;2024-01-30T03:54:09;102517.63;;;22.80;36.37
71384;BME280;67558;52.166;5.004;2024-01-30T03:56:35;102516.34;;;22.77;36.18
71384;BME280;67558;52.166;5.004;2024-01-30T03:59:00;102523.84;;;22.72;36.35
71384;BME280;67558;52.166;5.004;2024-01-30T04:01:27;102522.22;;;22.70;36.31
71384;BME280;67558;52.166;5.004;2024-01-30T04:03:53;102528.66;;;22.75;36.52
71384;BME280;67558;52.166;5.004;2024-01-30T04:06:18;102521.91;;;22.72;36.62
71384;BME280;67558;52.166;5.004;2024-01-30T04:08:43;102519.19;;;22.72;36.67
71384;BME280;67558;52.166;5.004;2024-01-30T04:11:09;102508.88;;;22.69;36.37
71384;BME280;67558;52.166;5.004;2024-01-30T04:13:34;102523.00;;;22.71;36.47
71384;BME280;67558;52.166;5.004;2024-01-30T04:16:00;102511.59;;;22.69;36.57
71384;BME280;67558;52.166;5.004;2024-01-30T04:18:27;102513.31;;;22.65;36.77
71384;BME280;67558;52.166;5.004;2024-01-30T04:20:52;102509.50;;;22.66;36.31
71384;BME280;67558;52.166;5.004;2024-01-30T04:23:17;102508.06;;;22.68;36.58
71384;BME280;67558;52.166;5.004;2024-01-30T04:25:42;102514.31;;;22.69;36.78
71384;BME280;67558;52.166;5.004;2024-01-30T04:28:08;102500.38;;;22.70;36.57
71384;BME280;67558;52.166;5.004;2024-01-30T04:30:33;102493.75;;;22.63;36.60
71384;BME280;67558;52.166;5.004;2024-01-30T04:32:58;102493.34;;;22.69;36.63
71384;BME280;67558;52.166;5.004;2024-01-30T04:35:24;102487.88;;;22.69;36.28
71384;BME280;67558;52.166;5.004;2024-01-30T04:37:51;102490.19;;;22.62;36.37
71384;BME280;67558;52.166;5.004;2024-01-30T04:40:17;102478.19;;;22.63;36.44
71384;BME280;67558;52.166;5.004;2024-01-30T04:42:42;102502.31;;;22.70;36.29
71384;BME280;67558;52.166;5.004;2024-01-30T04:45:07;102492.63;;;22.64;36.53
71384;BME280;67558;52.166;5.004;2024-01-30T04:47:33;102497.16;;;22.68;36.41
71384;BME280;67558;52.166;5.004;2024-01-30T04:49:58;102498.22;;;22.59;36.82
71384;BME280;67558;52.166;5.004;2024-01-30T04:52:24;102491.25;;;22.53;36.48
71384;BME280;67558;52.166;5.004;2024-01-30T04:54:49;102480.91;;;22.63;36.74
71384;BME280;67558;52.166;5.004;2024-01-30T04:57:14;102483.31;;;22.65;36.48
71384;BME280;67558;52.166;5.004;2024-01-30T04:59:40;102486.88;;;22.65;36.19
71384;BME280;67558;52.166;5.004;2024-01-30T05:02:05;102486.53;;;22.67;36.65
71384;BME280;67558;52.166;5.004;2024-01-30T05:04:30;102479.28;;;22.62;36.46
71384;BME280;67558;52.166;5.004;2024-01-30T05:06:55;102483.81;;;22.67;36.17
71384;BME280;67558;52.166;5.004;2024-01-30T05:09:21;102480.34;;;22.53;36.64
71384;BME280;67558;52.166;5.004;2024-01-30T05:11:47;102472.34;;;22.56;36.43
71384;BME280;67558;52.166;5.004;2024-01-30T05:14:12;102473.66;;;22.59;36.80
71384;BME280;67558;52.166;5.004;2024-01-30T05:16:40;102473.84;;;22.62;36.47
71384;BME280;67558;52.166;5.004;2024-01-30T05:19:06;102472.66;;;22.55;36.80
71384;BME280;67558;52.166;5.004;2024-01-30T05:21:31;102476.19;;;22.55;36.40
71384;BME280;67558;52.166;5.004;2024-01-30T05:23:56;102476.91;;;22.61;36.62
71384;BME280;67558;52.166;5.004;2024-01-30T05:26:22;102474.75;;;22.58;36.56
71384;BME280;67558;52.166;5.004;2024-01-30T05:28:48;102481.44;;;22.52;36.45
71384;BME280;67558;52.166;5.004;2024-01-30T05:31:13;102489.03;;;22.55;36.79
71384;BME280;67558;52.166;5.004;2024-01-30T05:33:39;102480.84;;;22.55;36.42
71384;BME280;67558;52.166;5.004;2024-01-30T05:36:05;102493.34;;;22.56;36.39
71384;BME280;67558;52.166;5.004;2024-01-30T05:38:30;102474.09;;;22.52;36.40
71384;BME280;67558;52.166;5.004;2024-01-30T05:40:57;102476.19;;;22.55;36.34
71384;BME280;67558;52.166;5.004;2024-01-30T05:43:25;102482.56;;;22.51;36.64
71384;BME280;67558;52.166;5.004;2024-01-30T05:45:51;102481.84;;;22.59;36.63
71384;BME280;67558;52.166;5.004;2024-01-30T05:48:17;102480.13;;;22.49;36.64
71384;BME280;67558;52.166;5.004;2024-01-30T05:50:42;102487.72;;;22.52;36.37
71384;BME280;67558;52.166;5.004;2024-01-30T05:53:07;102489.53;;;22.57;36.62
71384;BME280;67558;52.166;5.004;2024-01-30T05:55:33;102492.53;;;22.55;36.44
71384;BME280;67558;52.166;5.004;2024-01-30T05:57:58;102491.97;;;22.44;36.74
71384;BME280;67558;52.166;5.004;2024-01-30T06:00:23;102489.75;;;22.46;36.91
71384;BME280;67558;52.166;5.004;2024-01-30T06:02:49;102485.38;;;22.59;36.52
71384;BME280;67558;52.166;5.004;2024-01-30T06:05:14;102494.56;;;22.49;36.39
71384;BME280;67558;52.166;5.004;2024-01-30T06:07:40;102497.00;;;22.51;36.42
71384;BME280;67558;52.166;5.004;2024-01-30T06:10:05;102491.84;;;22.49;36.83
71384;BME280;67558;52.166;5.004;2024-01-30T06:12:32;102490.03;;;22.45;36.47
71384;BME280;67558;52.166;5.004;2024-01-30T06:14:57;102484.28;;;22.46;36.41
71384;BME280;67558;52.166;5.004;2024-01-30T06:17:23;102501.22;;;22.43;36.99
71384;BME280;67558;52.166;5.004;2024-01-30T06:19:48;102491.97;;;22.44;36.81
71384;BME280;67558;52.166;5.004;2024-01-30T06:22:14;102484.78;;;22.48;36.81
71384;BME280;67558;52.166;5.004;2024-01-30T06:24:40;102488.00;;;22.51;36.66
71384;BME280;67558;52.166;5.004;2024-01-30T06:27:05;102497.19;;;22.55;36.58
71384;BME280;67558;52.166;5.004;2024-01-30T06:29:30;102498.84;;;22.28;36.87
71384;BME280;67558;52.166;5.004;2024-01-30T06:31:56;102495.19;;;22.46;36.62
71384;BME280;67558;52.166;5.004;2024-01-30T06:34:22;102494.59;;;22.36;37.23
71384;BME280;67558;52.166;5.004;2024-01-30T06:36:47;102498.41;;;22.48;37.13
71384;BME280;67558;52.166;5.004;2024-01-30T06:39:13;102503.16;;;22.57;36.57
71384;BME280;67558;52.166;5.004;2024-01-30T06:41:38;102499.44;;;22.53;36.83
71384;BME280;67558;52.166;5.004;2024-01-30T06:44:03;102502.97;;;22.39;37.10
71384;BME280;67558;52.166;5.004;2024-01-30T06:46:31;102504.97;;;22.47;37.23
71384;BME280;67558;52.166;5.004;2024-01-30T06:48:57;102511.56;;;22.46;37.19
71384;BME280;67558;52.166;5.004;2024-01-30T06:51:22;102500.84;;;22.50;37.24
71384;BME280;67558;52.166;5.004;2024-01-30T06:53:48;102506.22;;;22.41;37.14
71384;BME280;67558;52.166;5.004;2024-01-30T06:56:13;102512.56;;;22.23;37.33
71384;BME280;67558;52.166;5.004;2024-01-30T06:58:39;102499.00;;;22.45;37.47
71384;BME280;67558;52.166;5.004;2024-01-30T07:01:04;102502.88;;;22.44;37.26
71384;BME280;67558;52.166;5.004;2024-01-30T07:03:30;102506.69;;;22.43;37.42
71384;BME280;67558;52.166;5.004;2024-01-30T07:05:55;102513.47;;;22.46;37.28
71384;BME280;67558;52.166;5.004;2024-01-30T07:08:20;102506.09;;;22.46;37.37
71384;BME280;67558;52.166;5.004;2024-01-30T07:10:47;102500.63;;;22.46;37.39
71384;BME280;67558;52.166;5.004;2024-01-30T07:13:12;102495.81;;;22.29;37.72
71384;BME280;67558;52.166;5.004;2024-01-30T07:15:38;102504.88;;;22.53;36.99
71384;BME280;67558;52.166;5.004;2024-01-30T07:18:04;102510.41;;;22.47;37.11
71384;BME280;67558;52.166;5.004;2024-01-30T07:20:32;102508.91;;;22.55;37.25
71384;BME280;67558;52.166;5.004;2024-01-30T07:22:58;102513.31;;;22.65;37.66
71384;BME280;67558;52.166;5.004;2024-01-30T07:25:26;102516.47;;;22.58;37.28
71384;BME280;67558;52.166;5.004;2024-01-30T07:27:53;102516.19;;;22.46;37.76
71384;BME280;67558;52.166;5.004;2024-01-30T07:30:20;102520.22;;;22.48;37.79
71384;BME280;67558;52.166;5.004;2024-01-30T07:32:47;102528.91;;;22.51;37.86
71384;BME280;67558;52.166;5.004;2024-01-30T07:35:13;102533.94;;;22.43;37.50
71384;BME280;67558;52.166;5.004;2024-01-30T07:37:39;102537.19;;;22.45;37.49
71384;BME280;67558;52.166;5.004;2024-01-30T07:40:06;102533.78;;;22.90;37.33
71384;BME280;67558;52.166;5.004;2024-01-30T07:42:32;102527.69;;;23.29;36.70
71384;BME280;67558;52.166;5.004;2024-01-30T07:44:57;102532.81;;;23.45;36.42
71384;BME280;67558;52.166;5.004;2024-01-30T07:47:23;102532.16;;;23.48;36.32
71384;BME280;67558;52.166;5.004;2024-01-30T07:49:48;102529.19;;;23.58;36.23
71384;BME280;67558;52.166;5.004;2024-01-30T07:52:13;102530.66;;;23.64;36.38
71384;BME280;67558;52.166;5.004;2024-01-30T07:54:48;102531.50;;;23.74;36.35
71384;BME280;67558;52.166;5.004;2024-01-30T07:57:14;102539.22;;;23.71;36.53
71384;BME280;67558;52.166;5.004;2024-01-30T07:59:42;102536.97;;;23.74;36.47
71384;BME280;67558;52.166;5.004;2024-01-30T08:02:07;102534.78;;;23.76;36.12
71384;BME280;67558;52.166;5.004;2024-01-30T08:04:33;102537.94;;;23.69;36.72
71384;BME280;67558;52.166;5.004;2024-01-30T08:06:58;102534.34;;;23.60;37.25
71384;BME280;67558;52.166;5.004;2024-01-30T08:09:24;102534.69;;;23.44;37.37
71384;BME280;67558;52.166;5.004;2024-01-30T08:11:49;102538.00;;;23.78;37.06
71384;BME280;67558;52.166;5.004;2024-01-30T08:14:14;102545.63;;;23.67;36.85
71384;BME280;67558;52.166;5.004;2024-01-30T08:16:40;102546.38;;;23.59;37.21
71384;BME280;67558;52.166;5.004;2024-01-30T08:19:05;102545.31;;;23.68;36.96
71384;BME280;67558;52.166;5.004;2024-01-30T08:21:30;102534.13;;;23.79;37.04
71384;BME280;67558;52.166;5.004;2024-01-30T08:24:01;102544.94;;;23.84;37.26
71384;BME280;67558;52.166;5.004;2024-01-30T08:26:27;102541.31;;;23.75;36.86
71384;BME280;67558;52.166;5.004;2024-01-30T08:28:52;102547.56;;;23.21;36.92
71384;BME280;67558;52.166;5.004;2024-01-30T08:31:18;102541.09;;;23.62;36.90
71384;BME280;67558;52.166;5.004;2024-01-30T08:33:44;102545.41;;;23.77;36.59
71384;BME280;67558;52.166;5.004;2024-01-30T08:36:09;102546.06;;;23.83;36.91
71384;BME280;67558;52.166;5.004;2024-01-30T08:38:34;102549.91;;;23.82;36.76
71384;BME280;67558;52.166;5.004;2024-01-30T08:40:59;102554.75;;;23.85;36.84
71384;BME280;67558;52.166;5.004;2024-01-30T08:43:25;102554.16;;;23.74;37.50
71384;BME280;67558;52.166;5.004;2024-01-30T08:45:50;102548.72;;;23.74;37.29
71384;BME280;67558;52.166;5.004;2024-01-30T08:48:15;102559.72;;;23.83;37.22
71384;BME280;67558;52.166;5.004;2024-01-30T08:50:42;102553.16;;;23.84;37.57
71384;BME280;67558;52.166;5.004;2024-01-30T08:53:08;102565.09;;;23.74;37.39
71384;BME280;67558;52.166;5.004;2024-01-30T08:55:33;102560.22;;;23.85;37.21
71384;BME280;67558;52.166;5.004;2024-01-30T08:57:58;102567.00;;;23.96;37.41
71384;BME280;67558;52.166;5.004;2024-01-30T09:00:24;102565.81;;;23.80;37.78
71384;BME280;67558;52.166;5.004;2024-01-30T09:02:50;102559.59;;;23.88;37.47
71384;BME280;67558;52.166;5.004;2024-01-30T09:05:15;102564.94;;;23.70;37.92
71384;BME280;67558;52.166;5.004;2024-01-30T09:07:40;102554.47;;;23.95;37.37
71384;BME280;67558;52.166;5.004;2024-01-30T09:10:06;102557.97;;;23.87;37.80
71384;BME280;67558;52.166;5.004;2024-01-30T09:12:31;102571.31;;;23.88;37.29
71384;BME280;67558;52.166;5.004;2024-01-30T09:14:57;102577.41;;;23.85;37.59
71384;BME280;67558;52.166;5.004;2024-01-30T09:17:22;102570.22;;;23.98;37.57
71384;BME280;67558;52.166;5.004;2024-01-30T09:19:48;102576.00;;;23.88;37.92
71384;BME280;67558;52.166;5.004;2024-01-30T09:22:13;102575.38;;;23.68;38.55
71384;BME280;67558;52.166;5.004;2024-01-30T09:24:38;102581.56;;;23.83;37.84
71384;BME280;67558;52.166;5.004;2024-01-30T09:27:05;102580.09;;;23.77;38.07
71384;BME280;67558;52.166;5.004;2024-01-30T09:29:30;102575.66;;;23.67;38.40
71384;BME280;67558;52.166;5.004;2024-01-30T09:31:55;102577.59;;;23.66;38.59
71384;BME280;67558;52.166;5.004;2024-01-30T09:34:21;102582.06;;;23.85;38.34
71384;BME280;67558;52.166;5.004;2024-01-30T09:36:46;102585.31;;;23.64;38.83
71384;BME280;67558;52.166;5.004;2024-01-30T09:39:11;102587.28;;;23.73;38.40
71384;BME280;67558;52.166;5.004;2024-01-30T09:41:45;102583.31;;;23.79;38.36
71384;BME280;67558;52.166;5.004;2024-01-30T09:44:16;102594.88;;;23.76;38.82
71384;BME280;67558;52.166;5.004;2024-01-30T09:46:41;102593.66;;;23.68;38.95
71384;BME280;67558;52.166;5.004;2024-01-30T09:49:08;102597.59;;;23.76;38.70
71384;BME280;67558;52.166;5.004;2024-01-30T09:51:34;102601.63;;;23.78;38.65
71384;BME280;67558;52.166;5.004;2024-01-30T09:54:00;102604.88;;;23.80;38.71
71384;BME280;67558;52.166;5.004;2024-01-30T09:56:28;102601.38;;;23.88;38.42
71384;BME280;67558;52.166;5.004;2024-01-30T09:58:54;102602.81;;;23.86;38.55
71384;BME280;67558;52.166;5.004;2024-01-30T10:01:19;102599.44;;;23.89;38.46
71384;BME280;67558;52.166;5.004;2024-01-30T10:03:45;102606.06;;;23.88;38.72
71384;BME280;67558;52.166;5.004;2024-01-30T10:06:11;102614.78;;;24.30;36.26
71384;BME280;67558;52.166;5.004;2024-01-30T10:08:37;102606.41;;;23.73;37.67
71384;BME280;67558;52.166;5.004;2024-01-30T10:11:03;102607.47;;;24.17;36.28
71384;BME280;67558;52.166;5.004;2024-01-30T10:13:29;102620.31;;;24.07;36.30
71384;BME280;67558;52.166;5.004;2024-01-30T10:15:54;102606.75;;;24.02;36.32
71384;BME280;67558;52.166;5.004;2024-01-30T10:18:22;102596.31;;;24.04;36.52
71384;BME280;67558;52.166;5.004;2024-01-30T10:20:47;102592.31;;;24.10;36.40
71384;BME280;67558;52.166;5.004;2024-01-30T10:23:13;102603.72;;;24.04;36.42
71384;BME280;67558;52.166;5.004;2024-01-30T10:25:38;102611.28;;;24.38;36.29
71384;BME280;67558;52.166;5.004;2024-01-30T10:28:04;102605.91;;;23.93;37.12
71384;BME280;67558;52.166;5.004;2024-01-30T10:30:29;102603.69;;;24.26;36.50
71384;BME280;67558;52.166;5.004;2024-01-30T10:32:54;102617.72;;;24.42;35.72
71384;BME280;67558;52.166;5.004;2024-01-30T10:35:20;102607.59;;;24.43;36.15
71384;BME280;67558;52.166;5.004;2024-01-30T10:37:48;102603.88;;;24.39;36.01
71384;BME280;67558;52.166;5.004;2024-01-30T10:40:14;102626.84;;;24.29;36.15
71384;BME280;67558;52.166;5.004;2024-01-30T10:42:45;102620.94;;;24.44;36.03
71384;BME280;67558;52.166;5.004;2024-01-30T10:45:14;102618.03;;;24.41;35.84
71384;BME280;67558;52.166;5.004;2024-01-30T10:47:50;102625.56;;;24.26;35.84
71384;BME280;67558;52.166;5.004;2024-01-30T10:50:16;102621.03;;;24.30;36.03
71384;BME280;67558;52.166;5.004;2024-01-30T10:52:42;102635.19;;;24.32;35.68
71384;BME280;67558;52.166;5.004;2024-01-30T10:55:07;102627.97;;;24.37;36.20
71384;BME280;67558;52.166;5.004;2024-01-30T10:57:37;102631.88;;;24.44;35.55
71384;BME280;67558;52.166;5.004;2024-01-30T11:00:11;102645.88;;;24.43;35.75
71384;BME280;67558;52.166;5.004;2024-01-30T11:02:39;102642.91;;;24.53;35.43
71384;BME280;67558;52.166;5.004;2024-01-30T11:05:06;102662.22;;;24.57;35.85
71384;BME280;67558;52.166;5.004;2024-01-30T11:07:31;102660.25;;;24.48;35.69
71384;BME280;67558;52.166;5.004;2024-01-30T11:12:23;102654.97;;;24.61;35.40
71384;BME280;67558;52.166;5.004;2024-01-30T11:14:49;102664.91;;;24.48;35.53
71384;BME280;67558;52.166;5.004;2024-01-30T11:17:15;102649.22;;;24.31;35.79
71384;BME280;67558;52.166;5.004;2024-01-30T11:19:41;102657.88;;;24.24;36.03
71384;BME280;67558;52.166;5.004;2024-01-30T11:22:07;102658.34;;;24.58;35.42
71384;BME280;67558;52.166;5.004;2024-01-30T11:24:39;102658.91;;;24.37;35.48
71384;BME280;67558;52.166;5.004;2024-01-30T11:27:09;102662.88;;;24.31;35.40
71384;BME280;67558;52.166;5.004;2024-01-30T11:29:35;102671.78;;;24.14;35.71
71384;BME280;67558;52.166;5.004;2024-01-30T11:32:00;102664.19;;;24.11;35.79
71384;BME280;67558;52.166;5.004;2024-01-30T11:34:26;102674.09;;;24.21;36.02
71384;BME280;67558;52.166;5.004;2024-01-30T11:36:53;102664.59;;;23.96;36.44
71384;BME280;67558;52.166;5.004;2024-01-30T11:39:24;102652.22;;;24.21;35.73
71384;BME280;67558;52.166;5.004;2024-01-30T11:41:51;102667.47;;;24.22;35.23
71384;BME280;67558;52.166;5.004;2024-01-30T11:44:18;102664.69;;;24.13;35.38
71384;BME280;67558;52.166;5.004;2024-01-30T11:46:43;102675.03;;;23.94;36.01
71384;BME280;67558;52.166;5.004;2024-01-30T11:49:10;102672.78;;;24.18;35.37
71384;BME280;67558;52.166;5.004;2024-01-30T11:51:35;102667.13;;;24.15;35.23
71384;BME280;67558;52.166;5.004;2024-01-30T11:54:00;102692.13;;;23.99;35.82
71384;BME280;67558;52.166;5.004;2024-01-30T11:56:26;102687.75;;;23.98;35.47
71384;BME280;67558;52.166;5.004;2024-01-30T11:58:52;102695.28;;;23.92;35.45
71384;BME280;67558;52.166;5.004;2024-01-30T12:01:17;102687.25;;;23.96;35.37
71384;BME280;67558;52.166;5.004;2024-01-30T12:03:43;102694.16;;;23.94;35.33
71384;BME280;67558;52.166;5.004;2024-01-30T12:06:15;102703.28;;;23.89;35.28
71384;BME280;67558;52.166;5.004;2024-01-30T12:08:41;102713.22;;;23.85;35.40
71384;BME280;67558;52.166;5.004;2024-01-30T12:11:07;102715.38;;;23.88;35.50
71384;BME280;67558;52.166;5.004;2024-01-30T12:13:32;102706.16;;;23.84;35.67
71384;BME280;67558;52.166;5.004;2024-01-30T12:15:58;102695.25;;;23.70;35.69
71384;BME280;67558;52.166;5.004;2024-01-30T12:18:24;102703.06;;;23.63;35.94
71384;BME280;67558;52.166;5.004;2024-01-30T12:20:59;102702.63;;;23.69;35.79
71384;BME280;67558;52.166;5.004;2024-01-30T12:23:26;102703.72;;;23.82;35.12
71384;BME280;67558;52.166;5.004;2024-01-30T12:25:52;102713.75;;;23.73;35.54
71384;BME280;67558;52.166;5.004;2024-01-30T12:28:17;102704.88;;;23.67;35.35
71384;BME280;67558;52.166;5.004;2024-01-30T12:30:43;102702.84;;;23.73;35.53
71384;BME280;67558;52.166;5.004;2024-01-30T12:33:08;102698.53;;;23.58;35.52
71384;BME280;67558;52.166;5.004;2024-01-30T12:35:35;102700.31;;;23.77;35.54
71384;BME280;67558;52.166;5.004;2024-01-30T12:38:01;102705.59;;;23.59;35.60
71384;BME280;67558;52.166;5.004;2024-01-30T12:40:27;102711.13;;;23.68;35.30
71384;BME280;67558;52.166;5.004;2024-01-30T12:42:54;102713.78;;;23.59;35.81
71384;BME280;67558;52.166;5.004;2024-01-30T12:45:21;102717.03;;;23.61;35.92